sensor_id;sensor_type;location;lat;lon;timestamp;pressure;altitude;pressure_sealevel;temperature;humidity
20955;BME280;10636;19.390;-99.256;2022-08-01T00:00:09;78115.78;;;24.22;45.77
20955;BME280;10636;19.390;-99.256;2022-08-01T00:02:39;78115.09;;;24.22;45.23
20955;BME280;10636;19.390;-99.256;2022-08-01T00:05:09;78111.63;;;24.19;45.19
20955;BME280;10636;19.390;-99.256;2022-08-01T00:07:37;78113.03;;;24.20;45.28
20955;BME280;10636;19.390;-99.256;2022-08-01T00:10:07;78109.56;;;24.18;45.50
20955;BME280;10636;19.390;-99.256;2022-08-01T00:12:36;78107.69;;;24.20;45.28
20955;BME280;10636;19.390;-99.256;2022-08-01T00:15:06;78111.63;;;24.19;45.24
20955;BME280;10636;19.390;-99.256;2022-08-01T00:17:35;78110.94;;;24.19;45.20
20955;BME280;10636;19.390;-99.256;2022-08-01T00:20:08;78107.56;;;24.18;45.45
20955;BME280;10636;19.390;-99.256;2022-08-01T00:22:37;78096.78;;;24.16;45.61
20955;BME280;10636;19.390;-99.256;2022-08-01T00:25:06;78097.47;;;24.17;45.70
20955;BME280;10636;19.390;-99.256;2022-08-01T00:27:35;78096.78;;;24.16;45.27
20955;BME280;10636;19.390;-99.256;2022-08-01T00:30:04;78092.72;;;24.15;45.23
20955;BME280;10636;19.390;-99.256;2022-08-01T00:32:33;78099.47;;;24.16;45.17
20955;BME280;10636;19.390;-99.256;2022-08-01T00:35:01;78087.28;;;24.13;45.40
20955;BME280;10636;19.390;-99.256;2022-08-01T00:37:31;78103.34;;;24.13;46.13
20955;BME280;10636;19.390;-99.256;2022-08-01T00:40:00;78111.31;;;24.11;45.41
20955;BME280;10636;19.390;-99.256;2022-08-01T00:42:28;78100.59;;;24.11;45.41
20955;BME280;10636;19.390;-99.256;2022-08-01T00:44:57;78112.00;;;24.12;46.01
20955;BME280;10636;19.390;-99.256;2022-08-01T00:47:25;78119.84;;;24.08;46.09
20955;BME280;10636;19.390;-99.256;2022-08-01T00:49:53;78126.00;;;24.10;45.62
20955;BME280;10636;19.390;-99.256;2022-08-01T00:52:22;78132.75;;;24.11;45.83
20955;BME280;10636;19.390;-99.256;2022-08-01T00:54:52;78136.72;;;24.10;45.70
20955;BME280;10636;19.390;-99.256;2022-08-01T00:57:20;78127.56;;;23.99;45.55
20955;BME280;10636;19.390;-99.256;2022-08-01T00:59:49;78141.97;;;24.08;45.76
20955;BME280;10636;19.390;-99.256;2022-08-01T01:02:17;78162.09;;;24.09;45.95
20955;BME280;10636;19.390;-99.256;2022-08-01T01:04:46;78168.88;;;24.10;45.77
20955;BME280;10636;19.390;-99.256;2022-08-01T01:07:19;78176.22;;;24.10;46.27
20955;BME280;10636;19.390;-99.256;2022-08-01T01:09:55;78174.13;;;24.08;46.08
20955;BME280;10636;19.390;-99.256;2022-08-01T01:12:29;78173.94;;;24.04;45.72
20955;BME280;10636;19.390;-99.256;2022-08-01T01:15:04;78188.81;;;24.07;46.10
20955;BME280;10636;19.390;-99.256;2022-08-01T01:17:39;78200.84;;;24.06;45.60
20955;BME280;10636;19.390;-99.256;2022-08-01T01:20:12;78197.91;;;24.00;45.76
20955;BME280;10636;19.390;-99.256;2022-08-01T01:22:55;78212.16;;;24.05;45.74
20955;BME280;10636;19.390;-99.256;2022-08-01T01:25:48;78214.13;;;24.04;46.12
20955;BME280;10636;19.390;-99.256;2022-08-01T01:28:29;78213.44;;;24.04;45.60
20955;BME280;10636;19.390;-99.256;2022-08-01T01:31:02;78220.22;;;24.05;45.97
20955;BME280;10636;19.390;-99.256;2022-08-01T01:33:34;78212.75;;;24.03;46.37
20955;BME280;10636;19.390;-99.256;2022-08-01T01:36:08;78214.13;;;24.04;45.99
20955;BME280;10636;19.390;-99.256;2022-08-01T01:38:40;78214.06;;;24.02;45.84
20955;BME280;10636;19.390;-99.256;2022-08-01T01:41:11;78212.06;;;24.03;46.12
20955;BME280;10636;19.390;-99.256;2022-08-01T01:43:40;78207.41;;;24.03;46.38
20955;BME280;10636;19.390;-99.256;2022-08-01T01:46:12;78214.06;;;24.02;45.85
20955;BME280;10636;19.390;-99.256;2022-08-01T01:48:44;78223.47;;;24.03;46.24
20955;BME280;10636;19.390;-99.256;2022-08-01T01:51:13;78216.03;;;24.02;46.07
20955;BME280;10636;19.390;-99.256;2022-08-01T01:53:43;78227.44;;;24.02;45.97
20955;BME280;10636;19.390;-99.256;2022-08-01T01:56:15;78234.88;;;24.04;45.60
20955;BME280;10636;19.390;-99.256;2022-08-01T01:58:44;78234.78;;;24.02;45.69
20955;BME280;10636;19.390;-99.256;2022-08-01T02:01:15;78230.13;;;24.02;46.16
20955;BME280;10636;19.390;-99.256;2022-08-01T02:03:45;78240.75;;;24.00;45.97
20955;BME280;10636;19.390;-99.256;2022-08-01T02:06:15;78241.47;;;24.00;45.80
20955;BME280;10636;19.390;-99.256;2022-08-01T02:08:45;78232.72;;;24.00;45.87
20955;BME280;10636;19.390;-99.256;2022-08-01T02:11:15;78237.47;;;24.02;45.69
20955;BME280;10636;19.390;-99.256;2022-08-01T02:13:50;78227.94;;;23.98;45.78
20955;BME280;10636;19.390;-99.256;2022-08-01T02:16:24;78240.06;;;23.99;45.85
20955;BME280;10636;19.390;-99.256;2022-08-01T02:18:53;78256.16;;;23.99;45.74
20955;BME280;10636;19.390;-99.256;2022-08-01T02:21:27;78254.75;;;23.98;46.38
20955;BME280;10636;19.390;-99.256;2022-08-01T02:24:00;78254.06;;;23.98;46.04
20955;BME280;10636;19.390;-99.256;2022-08-01T02:26:31;78257.41;;;23.98;45.69
20955;BME280;10636;19.390;-99.256;2022-08-01T02:29:04;78258.03;;;23.97;45.53
20955;BME280;10636;19.390;-99.256;2022-08-01T02:31:40;78269.44;;;23.97;46.24
20955;BME280;10636;19.390;-99.256;2022-08-01T02:34:15;78274.09;;;23.97;46.35
20955;BME280;10636;19.390;-99.256;2022-08-01T02:36:46;78274.78;;;23.97;45.91
20955;BME280;10636;19.390;-99.256;2022-08-01T02:39:17;78278.09;;;23.96;45.58
20955;BME280;10636;19.390;-99.256;2022-08-01T02:41:48;78268.66;;;23.95;45.78
20955;BME280;10636;19.390;-99.256;2022-08-01T02:44:23;78275.31;;;23.94;45.64
20955;BME280;10636;19.390;-99.256;2022-08-01T02:46:57;78276.69;;;23.95;45.67
20955;BME280;10636;19.390;-99.256;2022-08-01T02:49:31;78274.03;;;23.95;46.41
20955;BME280;10636;19.390;-99.256;2022-08-01T02:52:03;78273.91;;;23.93;46.46
20955;BME280;10636;19.390;-99.256;2022-08-01T02:54:33;78270.53;;;23.92;45.94
20955;BME280;10636;19.390;-99.256;2022-08-01T02:57:03;78276.59;;;23.93;45.91
20955;BME280;10636;19.390;-99.256;2022-08-01T02:59:37;78274.53;;;23.91;46.44
20955;BME280;10636;19.390;-99.256;2022-08-01T03:02:10;78271.16;;;23.91;46.08
20955;BME280;10636;19.390;-99.256;2022-08-01T03:04:39;78265.78;;;23.91;46.38
20955;BME280;10636;19.390;-99.256;2022-08-01T03:07:09;78265.78;;;23.91;45.97
20955;BME280;10636;19.390;-99.256;2022-08-01T03:09:40;78269.78;;;23.90;46.47
20955;BME280;10636;19.390;-99.256;2022-08-01T03:12:14;78265.78;;;23.91;45.81
20955;BME280;10636;19.390;-99.256;2022-08-01T03:14:45;78260.34;;;23.89;45.81
20955;BME280;10636;19.390;-99.256;2022-08-01T03:17:18;78271.06;;;23.89;45.97
20955;BME280;10636;19.390;-99.256;2022-08-01T03:19:48;78275.72;;;23.88;45.68
20955;BME280;10636;19.390;-99.256;2022-08-01T03:22:19;78268.78;;;23.83;46.30
20955;BME280;10636;19.390;-99.256;2022-08-01T03:24:51;78282.97;;;23.86;46.51
20955;BME280;10636;19.390;-99.256;2022-08-01T03:27:21;78291.00;;;23.86;46.15
20955;BME280;10636;19.390;-99.256;2022-08-01T03:29:51;78285.66;;;23.86;45.74
20955;BME280;10636;19.390;-99.256;2022-08-01T03:32:25;78293.00;;;23.85;46.38
20955;BME280;10636;19.390;-99.256;2022-08-01T03:34:55;78299.66;;;23.84;46.36
20955;BME280;10636;19.390;-99.256;2022-08-01T03:37:26;78314.31;;;23.83;46.31
20955;BME280;10636;19.390;-99.256;2022-08-01T03:39:58;78316.31;;;23.83;45.81
20955;BME280;10636;19.390;-99.256;2022-08-01T03:42:33;78317.59;;;23.82;46.06
20955;BME280;10636;19.390;-99.256;2022-08-01T03:45:07;78329.00;;;23.82;46.09
20955;BME280;10636;19.390;-99.256;2022-08-01T03:47:41;78322.94;;;23.82;46.03
20955;BME280;10636;19.390;-99.256;2022-08-01T03:50:11;78325.63;;;23.82;46.61
20955;BME280;10636;19.390;-99.256;2022-08-01T03:52:45;78326.94;;;23.81;46.60
20955;BME280;10636;19.390;-99.256;2022-08-01T03:55:15;78322.25;;;23.81;45.93
20955;BME280;10636;19.390;-99.256;2022-08-01T03:57:45;78315.44;;;23.78;45.90
20955;BME280;10636;19.390;-99.256;2022-08-01T04:00:15;78313.63;;;23.83;45.88
20955;BME280;10636;19.390;-99.256;2022-08-01T04:02:47;78313.63;;;23.83;46.62
20955;BME280;10636;19.390;-99.256;2022-08-01T04:05:16;78315.59;;;23.82;46.13
20955;BME280;10636;19.390;-99.256;2022-08-01T04:07:46;78314.91;;;23.82;45.85
20955;BME280;10636;19.390;-99.256;2022-08-01T04:10:16;78316.91;;;23.81;46.43
20955;BME280;10636;19.390;-99.256;2022-08-01T04:12:45;78318.91;;;23.81;46.52
20955;BME280;10636;19.390;-99.256;2022-08-01T04:15:13;78330.22;;;23.79;46.59
20955;BME280;10636;19.390;-99.256;2022-08-01T04:17:42;78329.53;;;23.79;46.02
20955;BME280;10636;19.390;-99.256;2022-08-01T04:20:12;78328.13;;;23.78;46.00
20955;BME280;10636;19.390;-99.256;2022-08-01T04:22:42;78335.47;;;23.77;46.35
20955;BME280;10636;19.390;-99.256;2022-08-01T04:25:14;78334.06;;;23.76;46.23
20955;BME280;10636;19.390;-99.256;2022-08-01T04:27:47;78338.66;;;23.73;46.53
20955;BME280;10636;19.390;-99.256;2022-08-01T04:30:17;78338.66;;;23.73;46.71
20955;BME280;10636;19.390;-99.256;2022-08-01T04:32:46;78341.34;;;23.73;46.36
20955;BME280;10636;19.390;-99.256;2022-08-01T04:35:19;78347.38;;;23.74;46.46
20955;BME280;10636;19.390;-99.256;2022-08-01T04:37:48;78360.09;;;23.73;46.33
20955;BME280;10636;19.390;-99.256;2022-08-01T04:40:20;78370.78;;;23.73;46.75
20955;BME280;10636;19.390;-99.256;2022-08-01T04:42:49;78384.19;;;23.73;46.05
20955;BME280;10636;19.390;-99.256;2022-08-01T04:45:18;78380.81;;;23.73;45.98
20955;BME280;10636;19.390;-99.256;2022-08-01T04:47:50;78375.47;;;23.73;46.01
20955;BME280;10636;19.390;-99.256;2022-08-01T04:50:21;78378.13;;;23.73;46.69
20955;BME280;10636;19.390;-99.256;2022-08-01T04:52:50;78380.09;;;23.72;46.08
20955;BME280;10636;19.390;-99.256;2022-08-01T04:55:19;78376.03;;;23.71;45.93
20955;BME280;10636;19.390;-99.256;2022-08-01T04:57:47;78369.22;;;23.68;46.19
20955;BME280;10636;19.390;-99.256;2022-08-01T05:00:16;78374.56;;;23.68;46.64
20955;BME280;10636;19.390;-99.256;2022-08-01T05:02:44;78378.50;;;23.67;46.48
20955;BME280;10636;19.390;-99.256;2022-08-01T05:05:13;78379.22;;;23.68;45.97
20955;BME280;10636;19.390;-99.256;2022-08-01T05:07:43;78373.16;;;23.67;46.39
20955;BME280;10636;19.390;-99.256;2022-08-01T05:10:12;78384.47;;;23.66;46.17
20955;BME280;10636;19.390;-99.256;2022-08-01T05:12:40;78393.81;;;23.65;46.49
20955;BME280;10636;19.390;-99.256;2022-08-01T05:15:09;78405.28;;;23.67;46.28
20955;BME280;10636;19.390;-99.256;2022-08-01T05:17:37;78407.88;;;23.65;46.35
20955;BME280;10636;19.390;-99.256;2022-08-01T05:20:06;78401.16;;;23.64;46.36
20955;BME280;10636;19.390;-99.256;2022-08-01T05:22:35;78393.00;;;23.62;46.50
20955;BME280;10636;19.390;-99.256;2022-08-01T05:25:06;78397.78;;;23.64;46.76
20955;BME280;10636;19.390;-99.256;2022-08-01T05:27:34;78405.81;;;23.64;46.75
20955;BME280;10636;19.390;-99.256;2022-08-01T05:30:07;78411.03;;;23.62;46.11
20955;BME280;10636;19.390;-99.256;2022-08-01T05:32:38;78398.34;;;23.62;46.55
20955;BME280;10636;19.390;-99.256;2022-08-01T05:35:08;78404.28;;;23.61;46.70
20955;BME280;10636;19.390;-99.256;2022-08-01T05:37:36;78400.91;;;23.60;46.73
20955;BME280;10636;19.390;-99.256;2022-08-01T05:40:07;78394.19;;;23.59;46.58
20955;BME280;10636;19.390;-99.256;2022-08-01T05:42:36;78388.81;;;23.59;46.52
20955;BME280;10636;19.390;-99.256;2022-08-01T05:45:05;78392.78;;;23.58;46.46
20955;BME280;10636;19.390;-99.256;2022-08-01T05:47:34;78392.78;;;23.58;46.66
20955;BME280;10636;19.390;-99.256;2022-08-01T05:50:02;78406.75;;;23.57;46.40
20955;BME280;10636;19.390;-99.256;2022-08-01T05:52:31;78412.09;;;23.57;46.68
20955;BME280;10636;19.390;-99.256;2022-08-01T05:54:59;78400.72;;;23.56;46.94
20955;BME280;10636;19.390;-99.256;2022-08-01T05:57:29;78395.25;;;23.54;46.41
20955;BME280;10636;19.390;-99.256;2022-08-01T05:59:58;78387.22;;;23.54;46.21
20955;BME280;10636;19.390;-99.256;2022-08-01T06:02:26;78392.59;;;23.54;46.73
20955;BME280;10636;19.390;-99.256;2022-08-01T06:04:55;78387.22;;;23.54;46.80
20955;BME280;10636;19.390;-99.256;2022-08-01T06:07:23;78387.84;;;23.53;46.29
20955;BME280;10636;19.390;-99.256;2022-08-01T06:09:52;78384.47;;;23.52;46.41
20955;BME280;10636;19.390;-99.256;2022-08-01T06:12:20;78375.63;;;23.49;46.41
20955;BME280;10636;19.390;-99.256;2022-08-01T06:14:52;78345.09;;;23.27;46.40
20955;BME280;10636;19.390;-99.256;2022-08-01T06:17:21;78375.63;;;23.49;46.75
20955;BME280;10636;19.390;-99.256;2022-08-01T06:19:49;78372.88;;;23.47;46.47
20955;BME280;10636;19.390;-99.256;2022-08-01T06:22:18;78378.22;;;23.47;45.90
20955;BME280;10636;19.390;-99.256;2022-08-01T06:24:46;78386.81;;;23.46;46.64
20955;BME280;10636;19.390;-99.256;2022-08-01T06:27:15;78385.44;;;23.45;46.52
20955;BME280;10636;19.390;-99.256;2022-08-01T06:29:43;78383.47;;;23.45;46.05
20955;BME280;10636;19.390;-99.256;2022-08-01T06:32:13;78384.06;;;23.44;46.61
20955;BME280;10636;19.390;-99.256;2022-08-01T06:34:42;78380.69;;;23.43;46.13
20955;BME280;10636;19.390;-99.256;2022-08-01T06:37:10;78381.28;;;23.42;46.75
20955;BME280;10636;19.390;-99.256;2022-08-01T06:39:40;78380.59;;;23.41;46.51
20955;BME280;10636;19.390;-99.256;2022-08-01T06:42:08;78373.84;;;23.40;46.72
20955;BME280;10636;19.390;-99.256;2022-08-01T06:44:37;78369.78;;;23.39;45.97
20955;BME280;10636;19.390;-99.256;2022-08-01T06:47:05;78369.09;;;23.39;46.82
20955;BME280;10636;19.390;-99.256;2022-08-01T06:49:35;78376.53;;;23.40;46.64
20955;BME280;10636;19.390;-99.256;2022-08-01T06:52:04;78377.13;;;23.39;46.84
20955;BME280;10636;19.390;-99.256;2022-08-01T06:54:32;78389.22;;;23.40;46.03
20955;BME280;10636;19.390;-99.256;2022-08-01T06:57:01;78382.47;;;23.39;46.02
20955;BME280;10636;19.390;-99.256;2022-08-01T06:59:32;78389.22;;;23.40;46.86
20955;BME280;10636;19.390;-99.256;2022-08-01T07:02:01;78387.81;;;23.39;46.04
20955;BME280;10636;19.390;-99.256;2022-08-01T07:04:30;78382.47;;;23.39;46.25
20955;BME280;10636;19.390;-99.256;2022-08-01T07:07:00;78381.09;;;23.38;46.29
20955;BME280;10636;19.390;-99.256;2022-08-01T07:09:28;78373.53;;;23.34;46.49
20955;BME280;10636;19.390;-99.256;2022-08-01T07:11:57;78380.41;;;23.37;46.82
20955;BME280;10636;19.390;-99.256;2022-08-01T07:14:25;78377.03;;;23.37;45.82
20955;BME280;10636;19.390;-99.256;2022-08-01T07:16:54;78382.38;;;23.37;46.07
20955;BME280;10636;19.390;-99.256;2022-08-01T07:19:22;78376.91;;;23.35;46.58
20955;BME280;10636;19.390;-99.256;2022-08-01T07:21:50;78374.25;;;23.35;46.44
20955;BME280;10636;19.390;-99.256;2022-08-01T07:24:20;78373.66;;;23.36;45.97
20955;BME280;10636;19.390;-99.256;2022-08-01T07:26:49;78378.28;;;23.36;46.77
20955;BME280;10636;19.390;-99.256;2022-08-01T07:29:17;78366.81;;;23.33;46.15
20955;BME280;10636;19.390;-99.256;2022-08-01T07:31:46;78364.81;;;23.34;45.76
20955;BME280;10636;19.390;-99.256;2022-08-01T07:34:14;78355.31;;;23.31;46.29
20955;BME280;10636;19.390;-99.256;2022-08-01T07:36:42;78362.06;;;23.32;46.31
20955;BME280;10636;19.390;-99.256;2022-08-01T07:39:11;78359.97;;;23.30;46.60
20955;BME280;10636;19.390;-99.256;2022-08-01T07:41:41;78356.72;;;23.32;46.58
20955;BME280;10636;19.390;-99.256;2022-08-01T07:44:09;78354.03;;;23.32;46.20
20955;BME280;10636;19.390;-99.256;2022-08-01T07:46:38;78353.22;;;23.29;45.88
20955;BME280;10636;19.390;-99.256;2022-08-01T07:49:08;78349.16;;;23.28;46.44
20955;BME280;10636;19.390;-99.256;2022-08-01T07:51:37;78349.84;;;23.29;46.18
20955;BME280;10636;19.390;-99.256;2022-08-01T07:54:05;78351.84;;;23.28;45.76
20955;BME280;10636;19.390;-99.256;2022-08-01T07:56:34;78349.06;;;23.26;46.26
20955;BME280;10636;19.390;-99.256;2022-08-01T07:59:04;78339.75;;;23.27;46.46
20955;BME280;10636;19.390;-99.256;2022-08-01T08:01:32;78333.72;;;23.27;46.19
20955;BME280;10636;19.390;-99.256;2022-08-01T08:04:00;78341.75;;;23.27;46.05
20955;BME280;10636;19.390;-99.256;2022-08-01T08:06:29;78330.91;;;23.25;46.59
20955;BME280;10636;19.390;-99.256;2022-08-01T08:08:57;78323.50;;;23.23;46.61
20955;BME280;10636;19.390;-99.256;2022-08-01T08:11:26;78317.44;;;23.22;46.04
20955;BME280;10636;19.390;-99.256;2022-08-01T08:13:54;78311.41;;;23.22;46.02
20955;BME280;10636;19.390;-99.256;2022-08-01T08:16:24;78306.75;;;23.22;45.90
20955;BME280;10636;19.390;-99.256;2022-08-01T08:18:52;78298.63;;;23.20;45.97
20955;BME280;10636;19.390;-99.256;2022-08-01T08:21:21;78299.91;;;23.19;46.29
20955;BME280;10636;19.390;-99.256;2022-08-01T08:23:49;78309.34;;;23.20;46.63
20955;BME280;10636;19.390;-99.256;2022-08-01T08:26:34;78313.28;;;23.19;46.00
20955;BME280;10636;19.390;-99.256;2022-08-01T08:29:04;78311.91;;;23.18;46.37
20955;BME280;10636;19.390;-99.256;2022-08-01T08:31:34;78309.13;;;23.16;46.72
20955;BME280;10636;19.390;-99.256;2022-08-01T08:34:02;78305.84;;;23.18;46.22
20955;BME280;10636;19.390;-99.256;2022-08-01T08:36:31;78317.25;;;23.18;46.50
20955;BME280;10636;19.390;-99.256;2022-08-01T08:38:59;78311.81;;;23.16;46.04
20955;BME280;10636;19.390;-99.256;2022-08-01T08:41:33;78314.50;;;23.16;46.03
20955;BME280;10636;19.390;-99.256;2022-08-01T08:44:01;78309.13;;;23.16;46.22
20955;BME280;10636;19.390;-99.256;2022-08-01T08:46:31;78306.47;;;23.16;46.67
20955;BME280;10636;19.390;-99.256;2022-08-01T08:49:03;78313.09;;;23.15;46.56
20955;BME280;10636;19.390;-99.256;2022-08-01T08:51:34;78305.66;;;23.14;45.70
20955;BME280;10636;19.390;-99.256;2022-08-01T08:54:06;78305.66;;;23.14;46.36
20955;BME280;10636;19.390;-99.256;2022-08-01T08:56:35;78304.97;;;23.13;46.05
20955;BME280;10636;19.390;-99.256;2022-08-01T08:59:05;78310.31;;;23.13;46.45
20955;BME280;10636;19.390;-99.256;2022-08-01T09:01:34;78313.00;;;23.13;45.75
20955;BME280;10636;19.390;-99.256;2022-08-01T09:04:04;78303.59;;;23.12;46.37
20955;BME280;10636;19.390;-99.256;2022-08-01T09:06:33;78311.53;;;23.10;46.51
20955;BME280;10636;19.390;-99.256;2022-08-01T09:09:01;78306.84;;;23.11;46.11
20955;BME280;10636;19.390;-99.256;2022-08-01T09:11:30;78306.16;;;23.10;45.90
20955;BME280;10636;19.390;-99.256;2022-08-01T09:14:04;78315.47;;;23.09;46.52
20955;BME280;10636;19.390;-99.256;2022-08-01T09:16:33;78314.06;;;23.08;46.52
20955;BME280;10636;19.390;-99.256;2022-08-01T09:19:11;78314.78;;;23.09;46.14
20955;BME280;10636;19.390;-99.256;2022-08-01T09:21:53;78318.75;;;23.08;46.46
20955;BME280;10636;19.390;-99.256;2022-08-01T09:24:24;78312.69;;;23.07;46.06
20955;BME280;10636;19.390;-99.256;2022-08-01T09:26:52;78318.03;;;23.07;45.78
20955;BME280;10636;19.390;-99.256;2022-08-01T09:29:23;78314.06;;;23.08;46.46
20955;BME280;10636;19.390;-99.256;2022-08-01T09:31:52;78312.69;;;23.07;45.92
20955;BME280;10636;19.390;-99.256;2022-08-01T09:34:27;78310.63;;;23.06;46.39
20955;BME280;10636;19.390;-99.256;2022-08-01T09:36:58;78303.19;;;23.04;46.09
20955;BME280;10636;19.390;-99.256;2022-08-01T09:39:27;78299.94;;;23.06;46.55
20955;BME280;10636;19.390;-99.256;2022-08-01T09:41:57;78296.44;;;23.03;45.59
20955;BME280;10636;19.390;-99.256;2022-08-01T09:44:42;78291.09;;;23.03;45.81
20955;BME280;10636;19.390;-99.256;2022-08-01T09:47:11;78289.03;;;23.02;45.58
20955;BME280;10636;19.390;-99.256;2022-08-01T09:49:42;78286.44;;;23.04;45.67
20955;BME280;10636;19.390;-99.256;2022-08-01T09:52:13;78288.31;;;23.01;46.30
20955;BME280;10636;19.390;-99.256;2022-08-01T09:54:42;78291.09;;;23.03;46.30
20955;BME280;10636;19.390;-99.256;2022-08-01T09:57:13;78298.44;;;23.03;45.72
20955;BME280;10636;19.390;-99.256;2022-08-01T09:59:45;78297.66;;;23.00;45.97
20955;BME280;10636;19.390;-99.256;2022-08-01T10:02:14;78299.03;;;23.01;45.53
20955;BME280;10636;19.390;-99.256;2022-08-01T10:04:51;78293.00;;;23.01;45.47
20955;BME280;10636;19.390;-99.256;2022-08-01T10:07:21;78299.03;;;23.01;46.11
20955;BME280;10636;19.390;-99.256;2022-08-01T10:09:49;78296.97;;;23.00;45.91
20955;BME280;10636;19.390;-99.256;2022-08-01T10:12:23;78294.97;;;23.00;45.86
20955;BME280;10636;19.390;-99.256;2022-08-01T10:14:52;78291.59;;;23.00;46.19
20955;BME280;10636;19.390;-99.256;2022-08-01T10:17:24;78294.16;;;22.98;45.81
20955;BME280;10636;19.390;-99.256;2022-08-01T10:19:55;78292.09;;;22.96;46.42
20955;BME280;10636;19.390;-99.256;2022-08-01T10:22:25;78291.41;;;22.95;46.12
20955;BME280;10636;19.390;-99.256;2022-08-01T10:24:56;78286.66;;;22.94;46.17
20955;BME280;10636;19.390;-99.256;2022-08-01T10:27:25;78293.28;;;22.93;45.73
20955;BME280;10636;19.390;-99.256;2022-08-01T10:29:56;78289.22;;;22.92;46.13
20955;BME280;10636;19.390;-99.256;2022-08-01T10:32:29;78299.22;;;22.91;45.77
20955;BME280;10636;19.390;-99.256;2022-08-01T10:35:01;78300.50;;;22.90;46.06
20955;BME280;10636;19.390;-99.256;2022-08-01T10:37:29;78305.16;;;22.90;46.59
20955;BME280;10636;19.390;-99.256;2022-08-01T10:39:58;78310.53;;;22.90;45.87
20955;BME280;10636;19.390;-99.256;2022-08-01T10:42:27;78309.13;;;22.89;46.21
20955;BME280;10636;19.390;-99.256;2022-08-01T10:44:55;78310.53;;;22.90;46.43
20955;BME280;10636;19.390;-99.256;2022-08-01T10:47:35;78319.22;;;22.90;46.52
20955;BME280;10636;19.390;-99.256;2022-08-01T10:50:18;78321.78;;;22.88;45.64
20955;BME280;10636;19.390;-99.256;2022-08-01T10:53:11;78318.44;;;22.88;45.71
20955;BME280;10636;19.390;-99.256;2022-08-01T10:55:51;78327.03;;;22.86;45.80
20955;BME280;10636;19.390;-99.256;2022-08-01T10:58:21;78333.75;;;22.87;46.16
20955;BME280;10636;19.390;-99.256;2022-08-01T11:01:23;78347.13;;;22.87;45.57
20955;BME280;10636;19.390;-99.256;2022-08-01T11:04:03;78344.97;;;22.84;46.07
20955;BME280;10636;19.390;-99.256;2022-08-01T11:06:52;78351.00;;;22.84;45.56
20955;BME280;10636;19.390;-99.256;2022-08-01T11:09:24;78342.97;;;22.84;45.83
20955;BME280;10636;19.390;-99.256;2022-08-01T11:12:00;78348.91;;;22.83;46.21
20955;BME280;10636;19.390;-99.256;2022-08-01T11:14:32;78354.25;;;22.83;46.38
20955;BME280;10636;19.390;-99.256;2022-08-01T11:17:31;78346.13;;;22.81;46.16
20955;BME280;10636;19.390;-99.256;2022-08-01T11:20:08;78344.75;;;22.80;46.42
20955;BME280;10636;19.390;-99.256;2022-08-01T11:26:18;78336.59;;;22.78;46.57
20955;BME280;10636;19.390;-99.256;2022-08-01T11:29:12;78345.34;;;22.78;46.27
20955;BME280;10636;19.390;-99.256;2022-08-01T11:31:41;78337.91;;;22.77;46.18
20955;BME280;10636;19.390;-99.256;2022-08-01T11:34:10;78339.19;;;22.76;46.57
20955;BME280;10636;19.390;-99.256;2022-08-01T11:36:38;78345.22;;;22.76;46.14
20955;BME280;10636;19.390;-99.256;2022-08-01T11:39:17;78343.84;;;22.75;46.20
20955;BME280;10636;19.390;-99.256;2022-08-01T11:41:48;78335.81;;;22.75;45.85
20955;BME280;10636;19.390;-99.256;2022-08-01T11:44:20;78334.31;;;22.72;46.49
20955;BME280;10636;19.390;-99.256;2022-08-01T11:46:56;78329.66;;;22.73;46.47
20955;BME280;10636;19.390;-99.256;2022-08-01T11:49:29;78318.28;;;22.72;46.09
20955;BME280;10636;19.390;-99.256;2022-08-01T11:52:04;78317.59;;;22.71;46.50
20955;BME280;10636;19.390;-99.256;2022-08-01T11:54:34;78314.22;;;22.71;46.44
20955;BME280;10636;19.390;-99.256;2022-08-01T11:57:05;78314.81;;;22.69;46.34
20955;BME280;10636;19.390;-99.256;2022-08-01T11:59:39;78320.78;;;22.68;46.26
20955;BME280;10636;19.390;-99.256;2022-08-01T12:02:19;78321.47;;;22.68;45.66
20955;BME280;10636;19.390;-99.256;2022-08-01T12:04:53;78318.78;;;22.68;46.42
20955;BME280;10636;19.390;-99.256;2022-08-01T12:07:23;78317.41;;;22.67;46.48
20955;BME280;10636;19.390;-99.256;2022-08-01T12:10:04;78315.31;;;22.66;46.55
20955;BME280;10636;19.390;-99.256;2022-08-01T12:12:35;78315.31;;;22.66;45.67
20955;BME280;10636;19.390;-99.256;2022-08-01T12:15:06;78307.97;;;22.66;46.28
20955;BME280;10636;19.390;-99.256;2022-08-01T12:17:37;78302.53;;;22.64;46.27
20955;BME280;10636;19.390;-99.256;2022-08-01T12:20:08;78315.22;;;22.64;46.22
20955;BME280;10636;19.390;-99.256;2022-08-01T12:22:37;78313.94;;;22.65;46.43
20955;BME280;10636;19.390;-99.256;2022-08-01T12:25:07;78322.63;;;22.65;45.74
20955;BME280;10636;19.390;-99.256;2022-08-01T12:27:39;78327.91;;;22.63;45.94
20955;BME280;10636;19.390;-99.256;2022-08-01T12:30:09;78329.66;;;22.59;46.60
20955;BME280;10636;19.390;-99.256;2022-08-01T12:32:39;78328.38;;;22.60;46.12
20955;BME280;10636;19.390;-99.256;2022-08-01T12:35:09;78327.78;;;22.61;45.94
20955;BME280;10636;19.390;-99.256;2022-08-01T12:37:38;78333.94;;;22.64;45.80
20955;BME280;10636;19.390;-99.256;2022-08-01T12:40:12;78343.25;;;22.63;46.00
20955;BME280;10636;19.390;-99.256;2022-08-01T12:42:44;78337.91;;;22.63;45.70
20955;BME280;10636;19.390;-99.256;2022-08-01T12:45:15;78343.25;;;22.63;46.08
20955;BME280;10636;19.390;-99.256;2022-08-01T12:47:44;78342.56;;;22.62;46.32
20955;BME280;10636;19.390;-99.256;2022-08-01T12:50:15;78349.28;;;22.63;46.64
20955;BME280;10636;19.390;-99.256;2022-08-01T12:52:43;78347.91;;;22.62;45.96
20955;BME280;10636;19.390;-99.256;2022-08-01T12:55:13;78347.19;;;22.62;46.03
20955;BME280;10636;19.390;-99.256;2022-08-01T12:57:46;78347.91;;;22.62;46.58
20955;BME280;10636;19.390;-99.256;2022-08-01T13:00:19;78350.44;;;22.60;46.42
20955;BME280;10636;19.390;-99.256;2022-08-01T13:02:49;78357.19;;;22.61;46.42